createdAt,value
2023-05-12T00:00:26.721Z,32.10
2023-05-12T00:01:28.078Z,29.91
2023-05-12T00:02:27.341Z,29.50
2023-05-12T00:03:27.775Z,30.13
2023-05-12T00:04:27.068Z,33.05
2023-05-12T00:05:27.686Z,29.98
2023-05-12T00:06:27.700Z,29.09
2023-05-12T00:07:26.705Z,28.89
2023-05-12T00:08:26.714Z,28.35
2023-05-12T00:09:26.707Z,28.07
2023-05-12T00:10:27.723Z,29.50
2023-05-12T00:11:26.717Z,29.55
2023-05-12T00:12:26.714Z,32.12
2023-05-12T00:13:27.772Z,28.04
2023-05-12T00:14:26.728Z,30.81
2023-05-12T00:15:26.717Z,32.08
2023-05-12T00:16:26.869Z,32.18
2023-05-12T00:17:27.826Z,32.08
2023-05-12T00:18:27.755Z,33.58
2023-05-12T00:19:26.747Z,32.16
2023-05-12T00:20:27.733Z,32.15
2023-05-12T00:21:27.772Z,29.92
2023-05-12T00:22:27.741Z,30.99
2023-05-12T00:23:26.752Z,32.20
2023-05-12T00:24:26.786Z,30.89
2023-05-12T00:25:27.773Z,36.05
2023-05-12T00:26:26.811Z,30.72
2023-05-12T00:27:26.806Z,33.62
2023-05-12T00:28:27.800Z,28.53
2023-05-12T00:29:26.805Z,30.33
2023-05-12T00:30:27.802Z,30.78
2023-05-12T00:31:27.854Z,33.90
2023-05-12T00:32:27.934Z,30.99
2023-05-12T00:33:26.819Z,34.06
2023-05-12T00:34:27.815Z,28.20
2023-05-12T00:35:26.817Z,31.84
2023-05-12T00:36:27.854Z,31.15
2023-05-12T00:37:27.824Z,29.83
2023-05-12T00:38:26.819Z,32.06
2023-05-12T00:39:27.841Z,34.34
2023-05-12T00:40:27.912Z,29.57
2023-05-12T00:41:27.842Z,31.99
2023-05-12T00:42:26.862Z,29.78
2023-05-12T00:43:26.866Z,27.23
2023-05-12T00:44:27.860Z,31.31
2023-05-12T00:45:26.902Z,31.00
2023-05-12T00:46:26.905Z,30.55
2023-05-12T00:47:26.934Z,30.69
2023-05-12T00:48:26.911Z,34.16
2023-05-12T00:49:26.891Z,28.27
2023-05-12T00:50:27.916Z,30.94
2023-05-12T00:51:26.894Z,30.35
2023-05-12T00:52:27.905Z,31.59
2023-05-12T00:53:37.583Z,26.43
2023-05-12T00:54:27.968Z,26.78
2023-05-12T00:55:26.889Z,27.62
2023-05-12T00:56:26.941Z,29.38
2023-05-12T00:57:27.927Z,30.27
2023-05-12T00:58:27.863Z,31.06
2023-05-12T00:59:26.866Z,28.08
2023-05-12T01:00:26.856Z,31.36
2023-05-12T01:01:27.921Z,32.95
2023-05-12T01:02:27.992Z,28.29
2023-05-12T01:03:27.942Z,27.98
2023-05-12T01:04:26.948Z,29.68
2023-05-12T01:05:27.805Z,27.85
2023-05-12T01:06:26.813Z,27.89
2023-05-12T01:07:26.800Z,27.27
2023-05-12T01:08:26.784Z,29.07
2023-05-12T01:09:26.801Z,31.05
2023-05-12T01:10:26.786Z,28.16
2023-05-12T01:11:27.798Z,29.39
2023-05-12T01:12:27.767Z,28.66
2023-05-12T01:13:27.773Z,30.26
2023-05-12T01:14:26.752Z,26.97
2023-05-12T01:15:27.818Z,30.90
2023-05-12T01:16:27.741Z,28.30
2023-05-12T01:17:27.851Z,30.83
2023-05-12T01:18:26.921Z,28.90
2023-05-12T01:19:27.723Z,29.60
2023-05-12T01:20:26.754Z,32.97
2023-05-12T01:21:27.706Z,27.44
2023-05-12T01:22:27.711Z,32.62
2023-05-12T01:23:27.708Z,29.95
2023-05-12T01:24:26.690Z,25.89
2023-05-12T01:25:26.677Z,30.61
2023-05-12T01:26:27.683Z,33.70
2023-05-12T01:27:26.677Z,30.59
2023-05-12T01:28:26.666Z,28.99
2023-05-12T01:29:26.645Z,30.52
2023-05-12T01:30:26.638Z,32.47
2023-05-12T01:31:26.692Z,28.11
2023-05-12T01:32:26.639Z,34.42
2023-05-12T01:33:26.636Z,28.68
2023-05-12T01:34:26.610Z,31.73
2023-05-12T01:35:27.602Z,27.64
2023-05-12T01:36:26.617Z,30.33
2023-05-12T01:37:27.571Z,29.80
2023-05-12T01:38:27.600Z,32.54
2023-05-12T01:39:26.593Z,32.62
2023-05-12T01:40:27.574Z,30.18
2023-05-12T01:41:26.549Z,28.70
2023-05-12T01:42:27.536Z,31.75
2023-05-12T01:43:27.529Z,26.47
2023-05-12T01:44:26.534Z,31.41
2023-05-12T01:45:26.526Z,27.74
2023-05-12T01:46:27.580Z,30.37
2023-05-12T01:47:27.547Z,28.36
2023-05-12T01:48:27.490Z,29.62
2023-05-12T01:49:26.507Z,32.49
2023-05-12T01:50:27.495Z,32.14
2023-05-12T01:51:27.502Z,30.54
2023-05-12T01:52:27.503Z,31.83
2023-05-12T01:53:27.482Z,27.65
2023-05-12T01:54:26.485Z,30.25
2023-05-12T01:55:27.453Z,32.08
2023-05-12T01:56:26.456Z,31.84
2023-05-12T01:57:26.441Z,32.91
2023-05-12T01:58:27.422Z,33.47
2023-05-12T01:59:27.492Z,30.98
2023-05-12T02:00:27.430Z,29.17
2023-05-12T02:01:27.417Z,32.81
2023-05-12T02:02:26.506Z,27.68
2023-05-12T02:03:26.443Z,30.87
2023-05-12T02:04:27.386Z,32.16
2023-05-12T02:05:27.375Z,29.58
2023-05-12T02:06:26.454Z,29.61
2023-05-12T02:07:26.362Z,30.66
2023-05-12T02:08:26.400Z,29.50
2023-05-12T02:09:27.470Z,27.10
2023-05-12T02:10:27.674Z,28.25
2023-05-12T02:11:27.819Z,28.89
2023-05-12T02:12:26.952Z,30.57
2023-05-12T02:13:28.529Z,27.63
2023-05-12T02:14:27.343Z,29.71
2023-05-12T02:15:26.596Z,29.33
2023-05-12T02:16:27.582Z,30.84
2023-05-12T02:17:27.991Z,29.72
2023-05-12T02:18:26.340Z,31.94
2023-05-12T02:19:26.286Z,30.20
2023-05-12T02:20:27.281Z,32.10
2023-05-12T02:21:26.271Z,30.82
2023-05-12T02:22:27.274Z,30.55
2023-05-12T02:23:27.284Z,28.86
2023-05-12T02:24:27.311Z,28.50
2023-05-12T02:25:27.231Z,29.37
2023-05-12T02:26:27.225Z,28.21
2023-05-12T02:27:26.228Z,31.61
2023-05-12T02:28:26.212Z,30.17
2023-05-12T02:29:27.235Z,30.19
2023-05-12T02:30:27.213Z,29.29
2023-05-12T02:31:27.218Z,30.37
2023-05-12T02:32:27.199Z,31.18
2023-05-12T02:33:26.186Z,26.79
2023-05-12T02:34:27.185Z,29.23
2023-05-12T02:35:27.239Z,29.24
2023-05-12T02:36:27.188Z,27.23
2023-05-12T02:37:26.177Z,25.88
2023-05-12T02:38:27.192Z,30.87
2023-05-12T02:39:26.173Z,29.35
2023-05-12T02:40:26.203Z,29.89
2023-05-12T02:41:27.184Z,26.86
2023-05-12T02:42:26.182Z,30.66
2023-05-12T02:43:27.178Z,25.00
2023-05-12T02:44:26.189Z,28.40
2023-05-12T02:45:27.157Z,27.91
2023-05-12T02:46:27.203Z,28.79
2023-05-12T02:47:26.173Z,28.46
2023-05-12T02:48:26.185Z,29.86
2023-05-12T02:49:26.185Z,32.19
2023-05-12T02:50:27.163Z,30.46
2023-05-12T02:51:26.161Z,29.12
2023-05-12T02:52:26.156Z,28.94
2023-05-12T02:53:27.187Z,28.37
2023-05-12T02:54:27.166Z,29.59
2023-05-12T02:55:27.168Z,28.88
2023-05-12T02:56:27.203Z,28.31
2023-05-12T02:57:27.181Z,29.35
2023-05-12T02:58:27.156Z,29.28
2023-05-12T02:59:26.162Z,31.41
2023-05-12T03:00:26.169Z,32.91
2023-05-12T03:01:26.176Z,30.54
2023-05-12T03:02:27.269Z,30.25
2023-05-12T03:03:27.269Z,29.25
2023-05-12T03:04:27.169Z,28.72
2023-05-12T03:05:27.165Z,30.95
2023-05-12T03:06:27.141Z,29.47
2023-05-12T03:07:26.170Z,28.00
2023-05-12T03:08:27.130Z,31.63
2023-05-12T03:09:26.156Z,29.69
2023-05-12T03:10:27.132Z,26.44
2023-05-12T03:11:26.152Z,29.55
2023-05-12T03:12:26.159Z,30.98
2023-05-12T03:13:27.145Z,30.75
2023-05-12T03:14:26.139Z,29.92
2023-05-12T03:15:27.170Z,26.01
2023-05-12T03:16:27.165Z,27.77
2023-05-12T03:17:27.227Z,29.68
2023-05-12T03:18:26.130Z,27.59
2023-05-12T03:19:26.141Z,28.17
2023-05-12T03:20:26.124Z,29.53
2023-05-12T03:21:27.105Z,27.09
2023-05-12T03:22:27.117Z,26.78
2023-05-12T03:23:26.130Z,28.76
2023-05-12T03:24:26.108Z,26.90
2023-05-12T03:25:27.111Z,29.92
2023-05-12T03:26:26.147Z,29.05
2023-05-12T03:27:27.115Z,29.47
2023-05-12T03:28:26.147Z,28.45
2023-05-12T03:29:27.151Z,29.13
2023-05-12T03:30:26.112Z,31.11
2023-05-12T03:31:27.223Z,30.95
2023-05-12T03:32:28.751Z,29.08
2023-05-12T03:33:27.116Z,29.01
2023-05-12T03:34:26.123Z,33.19
2023-05-12T03:35:26.099Z,30.64
2023-05-12T03:36:27.117Z,30.26
2023-05-12T03:37:26.064Z,30.11
2023-05-12T03:38:26.058Z,28.44
2023-05-12T03:39:27.068Z,28.70
2023-05-12T03:40:26.101Z,30.63
2023-05-12T03:41:26.079Z,28.82
2023-05-12T03:42:26.031Z,30.61
2023-05-12T03:43:27.030Z,29.06
2023-05-12T03:44:26.050Z,25.85
2023-05-12T03:45:27.042Z,29.37
2023-05-12T03:46:27.117Z,27.57
2023-05-12T03:47:29.023Z,29.29
2023-05-12T03:48:27.057Z,29.42
2023-05-12T03:49:25.992Z,29.90
2023-05-12T03:50:26.990Z,29.39
2023-05-12T03:51:27.051Z,29.57
2023-05-12T03:52:26.979Z,28.97
2023-05-12T03:53:26.989Z,28.74
2023-05-12T03:54:26.964Z,27.74
2023-05-12T03:55:25.963Z,29.44
2023-05-12T03:56:26.932Z,28.93
2023-05-12T03:57:26.967Z,27.17
2023-05-12T03:58:25.957Z,27.50
2023-05-12T03:59:26.912Z,27.78
2023-05-12T04:00:26.963Z,27.29
2023-05-12T04:01:26.901Z,26.22
2023-05-12T04:02:26.084Z,27.70
2023-05-12T04:03:26.956Z,27.30
2023-05-12T04:04:25.883Z,29.61
2023-05-12T04:05:25.870Z,27.85
2023-05-12T04:06:26.860Z,26.95
2023-05-12T04:07:26.867Z,27.49
2023-05-12T04:08:25.850Z,27.49
2023-05-12T04:09:26.864Z,27.44
2023-05-12T04:10:26.272Z,26.96
2023-05-12T04:11:26.837Z,26.96
2023-05-12T04:12:26.828Z,26.71
2023-05-12T04:13:25.807Z,26.50
2023-05-12T04:14:39.105Z,28.22
2023-05-12T04:15:26.892Z,28.55
2023-05-12T04:16:26.840Z,28.82
2023-05-12T04:17:25.866Z,28.70
2023-05-12T04:18:25.964Z,27.29
2023-05-12T04:19:26.751Z,27.61
2023-05-12T04:20:25.772Z,28.31
2023-05-12T04:21:25.766Z,26.00
2023-05-12T04:22:26.789Z,27.03
2023-05-12T04:23:25.756Z,28.66
2023-05-12T04:24:26.784Z,28.08
2023-05-12T04:25:26.727Z,29.62
2023-05-12T04:26:25.725Z,27.16
2023-05-12T04:27:26.720Z,27.97
2023-05-12T04:28:26.724Z,28.46
2023-05-12T04:29:26.712Z,28.06
2023-05-12T04:30:25.702Z,27.45
2023-05-12T04:31:26.717Z,29.19
2023-05-12T04:32:26.734Z,27.23
2023-05-12T04:33:25.684Z,25.42
2023-05-12T04:34:26.682Z,26.55
2023-05-12T04:35:26.660Z,27.25
2023-05-12T04:36:26.664Z,27.97
2023-05-12T04:37:26.653Z,26.38
2023-05-12T04:38:25.657Z,26.53
2023-05-12T04:39:26.621Z,27.54
2023-05-12T04:40:25.605Z,26.87
2023-05-12T04:41:25.597Z,27.27
2023-05-12T04:42:25.608Z,27.52
2023-05-12T04:44:25.607Z,27.80
2023-05-12T04:45:25.608Z,27.79
2023-05-12T04:46:26.595Z,27.56
2023-05-12T04:47:26.587Z,28.48
2023-05-12T04:48:26.595Z,28.00
2023-05-12T04:49:26.601Z,27.02
2023-05-12T04:50:26.554Z,26.41
2023-05-12T04:51:26.554Z,26.17
2023-05-12T04:52:25.533Z,28.44
2023-05-12T04:53:25.533Z,27.90
2023-05-12T04:54:25.532Z,27.50
2023-05-12T04:55:25.514Z,26.70
2023-05-12T04:56:25.484Z,27.37
2023-05-12T04:57:25.506Z,27.27
2023-05-12T04:58:25.496Z,27.42
2023-05-12T04:59:25.482Z,27.15
2023-05-12T05:00:26.466Z,25.17
2023-05-12T05:01:26.498Z,28.74
2023-05-12T05:02:25.487Z,26.74
2023-05-12T05:03:26.566Z,26.50
2023-05-12T05:04:25.455Z,29.57
2023-05-12T05:05:25.442Z,25.70
2023-05-12T05:06:25.433Z,30.22
2023-05-12T05:07:26.414Z,26.25
2023-05-12T05:08:26.451Z,29.44
2023-05-12T05:09:26.407Z,34.85
2023-05-12T05:10:25.394Z,34.94
2023-05-12T05:11:26.404Z,35.11
2023-05-12T05:12:25.374Z,34.51
2023-05-12T05:13:26.370Z,30.07
2023-05-12T05:14:26.355Z,34.79
2023-05-12T05:15:25.385Z,33.69
2023-05-12T05:16:26.383Z,28.35
2023-05-12T05:17:26.436Z,28.61
2023-05-12T05:18:25.441Z,28.30
2023-05-12T05:19:35.255Z,27.81
2023-05-12T05:20:29.130Z,27.98
2023-05-12T05:21:26.339Z,27.90
2023-05-12T05:22:26.355Z,28.00
2023-05-12T05:23:25.342Z,25.23
2023-05-12T05:24:26.297Z,24.35
2023-05-12T05:25:26.301Z,22.67
2023-05-12T05:26:25.274Z,25.00
2023-05-12T05:27:26.307Z,25.00
2023-05-12T05:28:26.312Z,29.15
2023-05-12T05:29:26.253Z,30.33
2023-05-12T05:30:26.297Z,25.60
2023-05-12T05:31:25.281Z,35.21
2023-05-12T05:32:26.277Z,25.20
2023-05-12T05:33:26.247Z,28.60
2023-05-12T05:34:26.302Z,27.05
2023-05-12T05:35:26.246Z,39.62
2023-05-12T05:36:26.477Z,32.82
2023-05-12T05:37:26.182Z,30.81
2023-05-12T05:38:25.192Z,31.79
2023-05-12T05:39:26.181Z,33.31
2023-05-12T05:40:26.439Z,36.81
2023-05-12T05:41:25.168Z,35.31
2023-05-12T05:42:26.177Z,38.98
2023-05-12T05:43:25.169Z,41.62
2023-05-12T05:44:25.176Z,31.53
2023-05-12T05:45:27.645Z,42.16
2023-05-12T05:46:26.208Z,50.99
2023-05-12T05:47:25.163Z,45.91
2023-05-12T05:48:25.100Z,25.32
2023-05-12T05:49:25.134Z,32.67
2023-05-12T05:50:26.120Z,45.30
2023-05-12T05:51:25.219Z,31.32
2023-05-12T05:52:26.157Z,38.90
2023-05-12T05:53:26.133Z,50.05
2023-05-12T05:54:25.067Z,53.07
2023-05-12T05:55:26.088Z,58.01
2023-05-12T05:56:25.054Z,63.56
2023-05-12T05:57:26.047Z,110.48
2023-05-12T05:58:25.056Z,80.86
2023-05-12T05:59:26.046Z,58.71
2023-05-12T06:00:25.086Z,67.52
2023-05-12T06:01:26.010Z,55.61
2023-05-12T06:02:26.140Z,32.46
2023-05-12T06:03:26.124Z,44.93
2023-05-12T06:04:25.108Z,24.47
2023-05-12T06:05:26.015Z,25.31
2023-05-12T06:06:26.043Z,87.12
2023-05-12T06:07:25.979Z,44.82
2023-05-12T06:08:25.992Z,26.07
2023-05-12T06:09:25.964Z,25.62
2023-05-12T06:10:25.974Z,29.98
2023-05-12T06:11:24.978Z,54.36
2023-05-12T06:12:25.947Z,27.12
2023-05-12T06:13:25.951Z,36.30
2023-05-12T06:14:25.932Z,25.48
2023-05-12T06:15:24.925Z,27.39
2023-05-12T06:16:24.940Z,36.11
2023-05-12T06:17:25.956Z,38.81
2023-05-12T06:18:25.977Z,25.00
2023-05-12T06:19:24.901Z,30.34
2023-05-12T06:20:25.936Z,34.16
2023-05-12T06:21:24.920Z,38.20
2023-05-12T06:22:24.878Z,28.58
2023-05-12T06:23:24.893Z,28.71
2023-05-12T06:24:25.919Z,27.18
2023-05-12T06:25:25.881Z,29.73
2023-05-12T06:26:25.883Z,26.21
2023-05-12T06:27:24.952Z,25.65
2023-05-12T06:28:24.973Z,28.91
2023-05-12T06:29:24.974Z,28.01
2023-05-12T06:30:25.942Z,30.13
2023-05-12T06:31:26.037Z,29.36
2023-05-12T06:32:25.065Z,37.23
2023-05-12T06:33:25.121Z,40.99
2023-05-12T06:34:25.189Z,36.32
2023-05-12T06:35:25.222Z,43.72
2023-05-12T06:36:26.296Z,46.68
2023-05-12T06:37:25.334Z,37.27
2023-05-12T06:38:26.402Z,32.76
2023-05-12T06:39:25.507Z,45.63
2023-05-12T06:40:25.540Z,37.66
2023-05-12T06:41:25.582Z,34.33
2023-05-12T06:42:26.615Z,33.09
2023-05-12T06:43:25.706Z,52.05
2023-05-12T06:44:25.729Z,52.35
2023-05-12T06:45:26.776Z,37.06
2023-05-12T06:46:26.873Z,36.61
2023-05-12T06:47:26.902Z,40.26
2023-05-12T06:48:26.963Z,28.16
2023-05-12T06:49:26.992Z,26.58
2023-05-12T06:50:27.109Z,29.57
2023-05-12T06:51:27.106Z,33.12
2023-05-12T06:52:27.126Z,44.43
2023-05-12T06:53:26.179Z,44.54
2023-05-12T06:54:27.179Z,58.43
2023-05-12T06:55:27.179Z,58.30
2023-05-12T06:56:27.484Z,63.50
2023-05-12T06:57:26.240Z,70.65
2023-05-12T06:58:27.340Z,70.18
2023-05-12T06:59:26.376Z,74.75
2023-05-12T07:00:27.509Z,79.26
2023-05-12T07:01:26.582Z,83.27
2023-05-12T07:02:26.775Z,86.18
2023-05-12T07:03:27.647Z,87.50
2023-05-12T07:04:27.622Z,89.85
2023-05-12T07:05:27.743Z,87.65
2023-05-12T07:06:27.782Z,89.33
2023-05-12T07:07:27.730Z,89.54
2023-05-12T07:08:27.783Z,93.56
2023-05-12T07:09:26.884Z,91.69
2023-05-12T07:10:27.848Z,91.29
2023-05-12T07:11:27.904Z,88.86
2023-05-12T07:12:28.033Z,91.92
2023-05-12T07:13:26.972Z,94.07
2023-05-12T07:14:27.012Z,93.71
2023-05-12T07:15:28.825Z,95.62
2023-05-12T07:16:28.154Z,97.12
2023-05-12T07:17:28.204Z,96.48
2023-05-12T07:18:27.193Z,93.09
2023-05-12T07:19:28.200Z,94.74
2023-05-12T07:20:28.207Z,96.45
2023-05-12T07:21:28.291Z,96.31
2023-05-12T07:22:28.283Z,95.83
2023-05-12T07:23:27.297Z,97.43
2023-05-12T07:24:28.398Z,98.19
2023-05-12T07:25:28.393Z,97.90
2023-05-12T07:26:27.399Z,104.69
2023-05-12T07:27:28.354Z,99.56
2023-05-12T07:28:28.421Z,99.55
2023-05-12T07:29:28.394Z,100.31
2023-05-12T07:30:28.405Z,102.50
2023-05-12T07:31:28.484Z,99.26
2023-05-12T07:32:28.440Z,102.33
2023-05-12T07:33:27.448Z,103.72
2023-05-12T07:34:27.465Z,102.39
2023-05-12T07:35:28.451Z,106.68
2023-05-12T07:36:28.478Z,106.49
2023-05-12T07:37:28.633Z,108.43
2023-05-12T07:38:28.562Z,110.89
2023-05-12T07:39:27.508Z,110.05
2023-05-12T07:40:27.540Z,111.40
2023-05-12T07:41:27.570Z,108.60
2023-05-12T07:42:27.582Z,111.50
2023-05-12T07:43:27.545Z,108.72
2023-05-12T07:44:28.564Z,113.38
2023-05-12T07:45:27.544Z,110.97
2023-05-12T07:46:28.558Z,115.79
2023-05-12T07:47:27.556Z,104.66
2023-05-12T07:48:27.520Z,111.51
2023-05-12T07:49:27.527Z,107.39
2023-05-12T07:50:28.558Z,105.49
2023-05-12T07:51:28.003Z,105.63
2023-05-12T07:52:28.574Z,96.42
2023-05-12T07:53:28.619Z,91.71
2023-05-12T07:54:27.612Z,83.55
2023-05-12T07:55:28.662Z,86.82
2023-05-12T07:56:27.651Z,76.99
2023-05-12T07:57:28.680Z,74.79
2023-05-12T07:58:27.765Z,73.70
2023-05-12T07:59:27.774Z,80.95
2023-05-12T08:00:28.802Z,70.68
2023-05-12T08:01:28.819Z,69.46
2023-05-12T08:02:29.073Z,70.54
2023-05-12T08:03:28.089Z,78.07
2023-05-12T08:04:27.960Z,74.91
2023-05-12T08:05:28.950Z,69.03
2023-05-12T08:06:28.012Z,71.88
2023-05-12T08:07:28.002Z,68.60
2023-05-12T08:08:29.051Z,69.97
2023-05-12T08:09:29.055Z,74.78
2023-05-12T08:10:29.104Z,77.33
2023-05-12T08:11:29.082Z,83.95
2023-05-12T08:12:28.072Z,83.59
2023-05-12T08:13:29.111Z,86.07
2023-05-12T08:14:28.075Z,87.42
2023-05-12T08:15:29.092Z,90.07
2023-05-12T08:16:29.187Z,89.27
2023-05-12T08:17:29.479Z,89.78
2023-05-12T08:18:29.129Z,95.05
2023-05-12T08:19:29.097Z,88.80
2023-05-12T08:20:29.085Z,92.55
2023-05-12T08:21:28.113Z,88.13
2023-05-12T08:22:29.109Z,87.27
2023-05-12T08:23:29.084Z,87.94
2023-05-12T08:24:28.108Z,88.49
2023-05-12T08:25:28.085Z,90.45
2023-05-12T08:26:28.766Z,88.30
2023-05-12T08:27:29.081Z,88.07
2023-05-12T08:28:28.128Z,90.52
2023-05-12T08:29:28.136Z,85.98
2023-05-12T08:30:28.137Z,85.03
2023-05-12T08:31:29.373Z,88.18
2023-05-12T08:32:28.268Z,85.89
2023-05-12T08:33:28.221Z,91.52
2023-05-12T08:34:29.257Z,87.47
2023-05-12T08:35:29.322Z,88.54
2023-05-12T08:36:28.366Z,93.08
2023-05-12T08:37:29.432Z,86.89
2023-05-12T08:38:29.460Z,86.49
2023-05-12T08:39:28.514Z,88.11
2023-05-12T08:40:28.556Z,92.59
2023-05-12T08:41:29.627Z,92.46
2023-05-12T08:42:30.008Z,97.60
2023-05-12T08:43:29.757Z,86.17
2023-05-12T08:44:29.795Z,92.18
2023-05-12T08:45:29.942Z,88.14
2023-05-12T08:46:28.956Z,86.99
2023-05-12T08:47:30.333Z,80.31
2023-05-12T08:48:29.059Z,81.28
2023-05-12T08:49:29.119Z,103.47
2023-05-12T08:50:29.214Z,110.58
2023-05-12T08:51:29.259Z,114.96
2023-05-12T08:52:29.320Z,109.99
2023-05-12T08:53:29.351Z,109.39
2023-05-12T08:54:30.460Z,119.65
2023-05-12T08:55:33.523Z,111.19
2023-05-12T08:57:29.969Z,111.64
2023-05-12T08:58:40.380Z,112.45
2023-05-12T08:59:30.447Z,111.54
2023-05-12T09:00:29.450Z,113.56
2023-05-12T09:01:29.475Z,104.61
2023-05-12T09:02:40.890Z,106.73
2023-05-12T09:03:30.547Z,111.43
2023-05-12T09:04:30.551Z,105.73
2023-05-12T09:05:29.417Z,106.56
2023-05-12T09:06:29.419Z,108.29
2023-05-12T09:07:29.473Z,115.24
2023-05-12T09:08:30.388Z,123.10
2023-05-12T09:09:30.380Z,117.14
2023-05-12T09:11:29.379Z,125.80
2023-05-12T09:12:31.392Z,118.43
2023-05-12T09:13:30.405Z,118.70
2023-05-12T09:14:30.385Z,120.28
2023-05-12T09:15:29.342Z,122.67
2023-05-12T09:16:29.449Z,113.79
2023-05-12T09:17:30.468Z,117.79
2023-05-12T09:18:30.369Z,123.80
2023-05-12T09:19:30.405Z,126.97
2023-05-12T09:20:31.983Z,125.03
2023-05-12T09:21:30.300Z,132.74
2023-05-12T09:22:29.310Z,127.22
2023-05-12T09:23:30.287Z,116.74
2023-05-12T09:24:30.295Z,123.41
2023-05-12T09:25:29.256Z,128.12
2023-05-12T09:26:30.323Z,120.83
2023-05-12T09:27:30.279Z,122.73
2023-05-12T09:28:29.252Z,118.76
2023-05-12T09:29:32.521Z,121.71
2023-05-12T09:30:29.230Z,122.34
2023-05-12T09:31:29.332Z,122.14
2023-05-12T09:32:29.234Z,114.53
2023-05-12T09:33:29.221Z,111.07
2023-05-12T09:34:29.212Z,83.39
2023-05-12T09:35:30.304Z,44.41
2023-05-12T09:36:29.205Z,29.85
2023-05-12T09:37:30.237Z,23.54
2023-05-12T09:38:29.193Z,28.34
2023-05-12T09:39:30.215Z,25.00
2023-05-12T09:40:30.218Z,26.71
2023-05-12T09:41:30.244Z,31.72
2023-05-12T09:42:30.281Z,29.09
2023-05-12T09:43:29.346Z,34.68
2023-05-12T09:44:30.417Z,23.38
2023-05-12T09:45:30.402Z,29.42
2023-05-12T09:46:29.486Z,38.80
2023-05-12T09:47:30.574Z,38.53
2023-05-12T09:48:30.450Z,27.97
2023-05-12T09:49:30.507Z,24.90
2023-05-12T09:50:40.756Z,29.75
2023-05-12T09:51:30.622Z,26.30
2023-05-12T09:52:29.579Z,4.92
2023-05-12T09:53:30.503Z,0.00
2023-05-12T09:54:29.548Z,0.00
2023-05-12T09:55:30.490Z,0.00
2023-05-12T09:56:30.477Z,13.75
2023-05-12T09:57:30.486Z,32.75
2023-05-12T09:58:30.473Z,25.12
2023-05-12T09:59:30.465Z,25.42
2023-05-12T10:00:46.145Z,28.67
2023-05-12T10:01:30.450Z,23.40
2023-05-12T10:02:30.618Z,19.71
2023-05-12T10:03:30.507Z,26.62
2023-05-12T10:04:29.455Z,25.43
2023-05-12T10:05:29.412Z,12.99
2023-05-12T10:06:30.447Z,25.52
2023-05-12T10:07:30.455Z,21.86
2023-05-12T10:08:29.371Z,29.79
2023-05-12T10:09:30.376Z,31.17
2023-05-12T10:10:30.366Z,28.51
2023-05-12T10:11:29.366Z,25.00
2023-05-12T10:12:29.444Z,31.68
2023-05-12T10:13:30.443Z,32.93
2023-05-12T10:14:29.471Z,40.02
2023-05-12T10:15:30.458Z,36.97
2023-05-12T10:16:30.498Z,41.20
2023-05-12T10:17:29.515Z,53.83
2023-05-12T10:18:29.522Z,52.14
2023-05-12T10:19:30.469Z,42.00
2023-05-12T10:20:30.465Z,36.34
2023-05-12T10:21:30.460Z,33.91
2023-05-12T10:22:29.444Z,36.13
2023-05-12T10:23:30.561Z,30.76
2023-05-12T10:24:29.443Z,34.34
2023-05-12T10:25:29.445Z,25.00
2023-05-12T10:26:29.459Z,38.15
2023-05-12T10:27:30.479Z,40.28
2023-05-12T10:28:29.448Z,55.70
2023-05-12T10:29:29.490Z,49.80
2023-05-12T10:30:30.505Z,52.78
2023-05-12T10:31:30.497Z,53.69
2023-05-12T10:32:30.511Z,49.74
2023-05-12T10:33:30.513Z,56.13
2023-05-12T10:34:29.542Z,42.13
2023-05-12T10:35:30.574Z,54.57
2023-05-12T10:36:29.607Z,51.41
2023-05-12T10:37:30.690Z,56.72
2023-05-12T10:38:30.656Z,45.00
2023-05-12T10:39:29.729Z,56.89
2023-05-12T10:40:29.677Z,61.73
2023-05-12T10:41:29.679Z,68.79
2023-05-12T10:42:30.068Z,79.73
2023-05-12T10:43:29.721Z,83.84
2023-05-12T10:44:30.742Z,66.65
2023-05-12T10:45:29.783Z,105.04
2023-05-12T10:46:31.095Z,77.94
2023-05-12T10:47:31.112Z,91.39
2023-05-12T10:48:29.838Z,80.78
2023-05-12T10:49:29.801Z,80.65
2023-05-12T10:50:30.849Z,94.50
2023-05-12T10:51:29.904Z,102.45
2023-05-12T10:52:29.934Z,95.99
2023-05-12T10:53:45.191Z,86.35
2023-05-12T10:54:30.981Z,80.05
2023-05-12T10:55:30.245Z,69.62
2023-05-12T10:56:31.263Z,78.77
2023-05-12T10:57:30.195Z,95.67
2023-05-12T10:58:31.324Z,91.82
2023-05-12T10:59:30.135Z,97.10
2023-05-12T11:00:31.399Z,77.64
2023-05-12T11:01:31.661Z,73.28
2023-05-12T11:02:30.624Z,63.47
2023-05-12T11:03:30.471Z,93.82
2023-05-12T11:04:30.986Z,62.20
2023-05-12T11:05:30.294Z,65.75
2023-05-12T11:06:31.223Z,60.77
2023-05-12T11:08:30.647Z,75.17
2023-05-12T11:09:31.278Z,79.87
2023-05-12T11:10:31.327Z,83.19
2023-05-12T11:11:31.479Z,89.93
2023-05-12T11:12:30.900Z,85.10
2023-05-12T11:13:29.899Z,83.13
2023-05-12T11:14:29.890Z,80.26
2023-05-12T11:15:29.926Z,96.09
2023-05-12T11:16:30.977Z,85.67
2023-05-12T11:17:31.055Z,97.94
2023-05-12T11:18:31.042Z,77.85
2023-05-12T11:19:30.114Z,75.80
2023-05-12T11:20:31.047Z,84.81
2023-05-12T11:21:30.340Z,106.40
2023-05-12T11:22:30.270Z,95.44
2023-05-12T11:23:30.306Z,86.35
2023-05-12T11:24:31.367Z,95.70
2023-05-12T11:25:31.475Z,94.79
2023-05-12T11:26:31.482Z,88.32
2023-05-12T11:27:31.677Z,91.89
2023-05-12T11:28:31.570Z,76.82
2023-05-12T11:29:31.589Z,73.23
2023-05-12T11:30:31.622Z,83.83
2023-05-12T11:31:30.773Z,86.57
2023-05-12T11:32:31.777Z,84.44
2023-05-12T11:33:30.742Z,78.33
2023-05-12T11:34:30.781Z,91.28
2023-05-12T11:35:31.855Z,105.63
2023-05-12T11:36:31.822Z,90.31
2023-05-12T11:37:31.869Z,98.37
2023-05-12T11:38:30.933Z,103.79
2023-05-12T11:39:31.963Z,99.45
2023-05-12T11:40:30.989Z,94.40
2023-05-12T11:41:30.988Z,93.63
2023-05-12T11:42:32.080Z,82.65
2023-05-12T11:43:32.184Z,71.87
2023-05-12T11:44:32.028Z,82.87
2023-05-12T11:45:32.158Z,81.73
2023-05-12T11:46:31.252Z,83.32
2023-05-12T11:47:32.071Z,64.95
2023-05-12T11:48:32.063Z,64.07
2023-05-12T11:49:32.094Z,77.94
2023-05-12T11:50:32.091Z,68.73
2023-05-12T11:51:32.127Z,82.21
2023-05-12T11:52:32.086Z,83.99
2023-05-12T11:53:31.097Z,81.55
2023-05-12T11:54:32.113Z,93.99
2023-05-12T11:55:32.155Z,83.60
2023-05-12T11:56:32.202Z,93.93
2023-05-12T11:57:32.247Z,107.00
2023-05-12T11:59:31.325Z,87.81
2023-05-12T12:00:31.293Z,82.86
2023-05-12T12:01:31.293Z,75.18
2023-05-12T12:02:31.449Z,57.21
2023-05-12T12:03:31.405Z,68.83
2023-05-12T12:04:33.571Z,54.17
2023-05-12T12:05:32.325Z,39.37
2023-05-12T12:06:31.345Z,31.47
2023-05-12T12:07:31.396Z,25.88
2023-05-12T12:08:31.373Z,41.01
2023-05-12T12:09:32.357Z,47.54
2023-05-12T12:10:31.359Z,44.83
2023-05-12T12:11:32.408Z,45.09
2023-05-12T12:12:31.386Z,46.58
2023-05-12T12:13:32.462Z,52.02
2023-05-12T12:14:32.405Z,88.27
2023-05-12T12:15:32.484Z,166.86
2023-05-12T12:16:32.684Z,250.00
2023-05-12T12:17:32.531Z,268.94
2023-05-12T12:18:32.639Z,275.69
2023-05-12T12:19:31.582Z,258.77
2023-05-12T12:20:31.596Z,250.00
2023-05-12T12:21:32.587Z,249.17
2023-05-12T12:22:32.627Z,235.78
2023-05-12T12:23:43.878Z,249.51
2023-05-12T12:24:32.690Z,250.01
2023-05-12T12:25:31.660Z,250.91
2023-05-12T12:26:31.637Z,242.00
2023-05-12T12:27:31.635Z,230.62
2023-05-12T12:28:31.645Z,225.75
2023-05-12T12:29:32.664Z,223.19
2023-05-12T12:30:32.627Z,225.93
2023-05-12T12:31:31.707Z,228.42
2023-05-12T12:32:31.661Z,229.93
2023-05-12T12:33:32.593Z,235.99
2023-05-12T12:34:32.580Z,239.00
2023-05-12T12:35:31.576Z,243.57
2023-05-12T12:36:32.582Z,247.73
2023-05-12T12:37:31.623Z,250.00
2023-05-12T12:38:31.553Z,249.90
2023-05-12T12:39:32.538Z,248.15
2023-05-12T12:40:32.537Z,249.45
2023-05-12T12:41:32.530Z,250.00
2023-05-12T12:42:32.533Z,246.21
2023-05-12T12:43:31.566Z,247.08
2023-05-12T12:44:32.504Z,247.45
2023-05-12T12:45:32.516Z,248.00
2023-05-12T12:46:32.533Z,247.82
2023-05-12T12:47:31.579Z,248.41
2023-05-12T12:48:32.486Z,247.14
2023-05-12T12:49:31.484Z,248.29
2023-05-12T12:50:31.473Z,248.11
2023-05-12T12:51:44.609Z,248.85
2023-05-12T12:52:32.459Z,248.99
2023-05-12T12:53:31.444Z,249.49
2023-05-12T12:54:31.447Z,249.95